Time;durP1;ratioP1;P1;durP2;ratioP2;P2;SDS_P1;SDS_P2;PMS_P1;PMS_P2;Temp;Humidity;BMP_temperature;BMP_pressure;BME280_temperature;BME280_humidity;BME280_pressure;Samples;Min_cycle;Max_cycle;Signal;HPM_P1;HPM_P2
2023/07/11 00:00:37;;;;;;;;;;;23.60;64.00;;;;;;5034498;28;81443;-41
2023/07/11 00:03:03;;;;;;;;;;;23.50;63.90;;;;;;5037909;28;80436;-41
2023/07/11 00:05:28;;;;;;;;;;;23.60;63.90;;;;;;5034617;28;80866;-43
2023/07/11 00:07:54;;;;;;;;;;;23.50;63.80;;;;;;5037124;28;81351;-41
2023/07/11 00:10:19;;;;;;;;;;;23.50;63.90;;;;;;5035336;28;80761;-41
2023/07/11 00:12:45;;;;;;;;;;;23.50;63.90;;;;;;5034258;27;82241;-40
2023/07/11 00:15:11;;;;;;;;;;;23.50;63.80;;;;;;5030460;28;81469;-41
2023/07/11 00:17:37;;;;;;;;;;;23.50;64.00;;;;;;5038641;28;80290;-41
2023/07/11 00:20:04;;;;;;;;;;;23.50;64.00;;;;;;5034407;28;81119;-41
2023/07/11 00:22:31;;;;;;;;;;;23.40;64.50;;;;;;5030323;28;80837;-41
2023/07/11 00:24:56;;;;;;;;;;;23.30;63.80;;;;;;5036560;28;81721;-42
2023/07/11 00:27:23;;;;;;;;;;;23.30;63.90;;;;;;5031593;28;80482;-42
2023/07/11 00:29:49;;;;;;;;;;;23.30;64.00;;;;;;5036164;28;80228;-42
2023/07/11 00:32:14;;;;;;;;;;;23.30;64.00;;;;;;5033707;27;80312;-41
2023/07/11 00:34:40;;;;;;;;;;;23.30;63.80;;;;;;5036784;28;81617;-41
2023/07/11 00:37:05;;;;;;;;;;;23.30;63.80;;;;;;5033668;28;80285;-41
2023/07/11 00:39:32;;;;;;;;;;;23.30;64.00;;;;;;5039559;28;80794;-43
2023/07/11 00:41:58;;;;;;;;;;;23.30;63.90;;;;;;5033908;28;80301;-42
2023/07/11 00:44:23;;;;;;;;;;;23.20;64.00;;;;;;5036279;28;80553;-41
2023/07/11 00:46:49;;;;;;;;;;;23.20;63.90;;;;;;5035399;28;83091;-41
2023/07/11 00:49:16;;;;;;;;;;;23.20;64.00;;;;;;5034128;28;81634;-41
2023/07/11 00:51:45;;;;;;;;;;;23.20;64.00;;;;;;5035932;28;82273;-42
2023/07/11 00:54:13;;;;;;;;;;;23.20;64.10;;;;;;5028788;28;82287;-41
2023/07/11 00:56:40;;;;;;;;;;;23.10;63.90;;;;;;5034366;28;82963;-41
2023/07/11 00:59:07;;;;;;;;;;;23.10;64.00;;;;;;5035520;28;83321;-40
2023/07/11 01:01:33;;;;;;;;;;;23.10;64.00;;;;;;5031262;28;82065;-42
2023/07/11 01:03:58;;;;;;;;;;;23.10;64.00;;;;;;5035282;28;82780;-42
2023/07/11 01:06:26;;;;;;;;;;;23.10;64.00;;;;;;5032371;28;83193;-43
2023/07/11 01:08:52;;;;;;;;;;;23.10;64.00;;;;;;5035095;28;82241;-43
2023/07/11 01:11:19;;;;;;;;;;;23.10;64.00;;;;;;5033815;28;83000;-41
2023/07/11 01:13:45;;;;;;;;;;;23.10;64.10;;;;;;5033814;28;82667;-42
2023/07/11 01:16:10;;;;;;;;;;;23.10;64.10;;;;;;5033882;28;82577;-42
2023/07/11 01:18:36;;;;;;;;;;;23.00;64.00;;;;;;5032597;28;82446;-43
2023/07/11 01:21:04;;;;;;;;;;;23.00;64.00;;;;;;5037657;28;83814;-41
2023/07/11 01:23:29;;;;;;;;;;;23.00;64.00;;;;;;5028748;28;84924;-41
2023/07/11 01:26:02;;;;;;;;;;;22.90;64.00;;;;;;5034641;28;82809;-41
2023/07/11 01:28:28;;;;;;;;;;;22.90;64.00;;;;;;5035586;27;82094;-43
2023/07/11 01:30:53;;;;;;;;;;;22.90;64.00;;;;;;5036578;27;83168;-42
2023/07/11 01:33:19;;;;;;;;;;;22.90;64.00;;;;;;5034824;28;82870;-47
2023/07/11 01:35:44;;;;;;;;;;;22.90;64.00;;;;;;5039279;28;82311;-43
2023/07/11 01:38:09;;;;;;;;;;;22.90;64.00;;;;;;5036558;28;82666;-42
2023/07/11 01:40:35;;;;;;;;;;;22.80;63.90;;;;;;5032525;28;83169;-43
2023/07/11 01:43:01;;;;;;;;;;;22.90;64.00;;;;;;5038906;28;81967;-41
2023/07/11 01:45:27;;;;;;;;;;;22.80;64.00;;;;;;5037416;28;84820;-42
2023/07/11 01:47:52;;;;;;;;;;;22.80;63.90;;;;;;5035787;28;81967;-43
2023/07/11 01:50:18;;;;;;;;;;;22.80;63.90;;;;;;5036518;27;81947;-42
2023/07/11 01:52:43;;;;;;;;;;;22.70;64.00;;;;;;5039495;28;83596;-42
2023/07/11 01:55:10;;;;;;;;;;;22.80;64.00;;;;;;5036451;28;81932;-43
2023/07/11 01:57:35;;;;;;;;;;;22.70;63.90;;;;;;5036343;28;81991;-44
2023/07/11 02:00:01;;;;;;;;;;;22.70;63.90;;;;;;5038245;27;82094;-45
2023/07/11 02:02:26;;;;;;;;;;;22.70;63.80;;;;;;5035000;28;81328;-45
2023/07/11 02:04:52;;;;;;;;;;;22.70;64.00;;;;;;5041227;28;82078;-44
2023/07/11 02:07:18;;;;;;;;;;;22.70;63.90;;;;;;5036321;28;82057;-45
2023/07/11 02:09:43;;;;;;;;;;;22.70;63.80;;;;;;5038577;28;84154;-47
2023/07/11 02:12:09;;;;;;;;;;;22.70;63.90;;;;;;5032044;28;82962;-48
2023/07/11 02:14:36;;;;;;;;;;;22.60;64.00;;;;;;5034802;28;82579;-41
2023/07/11 02:17:02;;;;;;;;;;;22.60;63.90;;;;;;5035404;28;84283;-41
2023/07/11 02:19:27;;;;;;;;;;;22.60;63.80;;;;;;5037212;28;83206;-41
2023/07/11 02:21:53;;;;;;;;;;;22.60;64.00;;;;;;5038071;28;82030;-41
2023/07/11 02:24:19;;;;;;;;;;;22.60;63.90;;;;;;5036271;28;82355;-41
2023/07/11 02:26:45;;;;;;;;;;;22.60;63.90;;;;;;5042178;28;82180;-41
2023/07/11 02:29:11;;;;;;;;;;;22.50;63.90;;;;;;5030201;28;83862;-44
2023/07/11 02:31:37;;;;;;;;;;;22.50;63.90;;;;;;5035824;28;81873;-41
2023/07/11 02:34:03;;;;;;;;;;;22.50;64.00;;;;;;5035662;28;82980;-41
2023/07/11 02:36:29;;;;;;;;;;;22.50;63.90;;;;;;5037064;27;83179;-41
2023/07/11 02:38:54;;;;;;;;;;;22.50;63.80;;;;;;5037388;28;83682;-41
2023/07/11 02:41:20;;;;;;;;;;;22.50;63.90;;;;;;5035286;28;82117;-41
2023/07/11 02:43:46;;;;;;;;;;;22.40;63.90;;;;;;5034934;28;82345;-42
2023/07/11 02:46:13;;;;;;;;;;;22.40;63.80;;;;;;5038273;28;84288;-41
2023/07/11 02:48:39;;;;;;;;;;;22.40;64.00;;;;;;5032849;28;81949;-41
2023/07/11 02:51:04;;;;;;;;;;;22.40;63.90;;;;;;5037719;28;82393;-42
2023/07/11 02:53:30;;;;;;;;;;;22.40;63.80;;;;;;5035423;28;81813;-42
2023/07/11 02:55:56;;;;;;;;;;;22.40;63.80;;;;;;5036024;28;82960;-40
2023/07/11 02:58:22;;;;;;;;;;;22.40;63.80;;;;;;5036663;28;85255;-41
2023/07/11 03:00:49;;;;;;;;;;;22.30;63.80;;;;;;5034984;28;82125;-41
2023/07/11 03:03:14;;;;;;;;;;;22.30;63.90;;;;;;5036664;28;82391;-40
2023/07/11 03:05:47;;;;;;;;;;;22.40;63.90;;;;;;5035867;28;82420;-41
2023/07/11 03:08:13;;;;;;;;;;;22.30;63.70;;;;;;5038599;28;82090;-41
2023/07/11 03:10:38;;;;;;;;;;;22.30;63.80;;;;;;5037797;28;83148;-41
2023/07/11 03:13:04;;;;;;;;;;;22.30;63.90;;;;;;5034360;28;82097;-41
2023/07/11 03:15:29;;;;;;;;;;;22.30;63.90;;;;;;5030764;28;82350;-42
2023/07/11 03:17:55;;;;;;;;;;;22.20;63.90;;;;;;5033963;28;82892;-42
2023/07/11 03:20:20;;;;;;;;;;;22.20;63.90;;;;;;5028967;28;82019;-42
2023/07/11 03:22:46;;;;;;;;;;;22.30;63.90;;;;;;5028705;28;83255;-42
2023/07/11 03:25:12;;;;;;;;;;;22.20;63.90;;;;;;5036756;28;82897;-41
2023/07/11 03:27:37;;;;;;;;;;;22.20;64.00;;;;;;5036242;28;82112;-41
2023/07/11 03:30:03;;;;;;;;;;;22.20;63.90;;;;;;5027310;28;83690;-41
2023/07/11 03:32:28;;;;;;;;;;;22.20;63.90;;;;;;5022753;28;81982;-41
2023/07/11 03:34:54;;;;;;;;;;;22.10;63.90;;;;;;5037904;28;82381;-41
2023/07/11 03:37:19;;;;;;;;;;;22.10;63.80;;;;;;5034266;28;83078;-42
2023/07/11 03:39:45;;;;;;;;;;;22.10;63.80;;;;;;5029595;28;82232;-43
2023/07/11 03:42:10;;;;;;;;;;;22.10;63.80;;;;;;5026059;28;81968;-42
2023/07/11 03:44:37;;;;;;;;;;;22.10;63.90;;;;;;5034423;28;82149;-41
2023/07/11 03:47:03;;;;;;;;;;;22.10;63.90;;;;;;5032461;28;82978;-41
2023/07/11 03:49:28;;;;;;;;;;;22.10;63.80;;;;;;5028089;28;83216;-41
2023/07/11 03:51:54;;;;;;;;;;;22.10;63.80;;;;;;5033117;28;83428;-41
2023/07/11 03:54:23;;;;;;;;;;;22.10;63.90;;;;;;5035003;28;82492;-41
2023/07/11 03:56:50;;;;;;;;;;;22.10;63.80;;;;;;5029811;28;82945;-41
2023/07/11 03:59:15;;;;;;;;;;;22.10;63.80;;;;;;5022044;28;82719;-41
2023/07/11 04:01:41;;;;;;;;;;;22.00;63.80;;;;;;5033203;28;82065;-40
2023/07/11 04:04:06;;;;;;;;;;;22.00;63.80;;;;;;5037970;28;82331;-42
2023/07/11 04:06:32;;;;;;;;;;;22.00;63.90;;;;;;5022145;28;84039;-41
2023/07/11 04:08:57;;;;;;;;;;;22.00;64.50;;;;;;5027453;28;83978;-41
2023/07/11 04:11:23;;;;;;;;;;;22.00;63.80;;;;;;5032711;28;85610;-41
2023/07/11 04:13:48;;;;;;;;;;;22.00;63.90;;;;;;5034688;28;83852;-43
2023/07/11 04:16:14;;;;;;;;;;;22.00;63.80;;;;;;5024231;28;83106;-41
2023/07/11 04:18:40;;;;;;;;;;;22.00;63.90;;;;;;5031021;28;81852;-41
2023/07/11 04:21:05;;;;;;;;;;;22.00;63.80;;;;;;5034040;27;82504;-40
2023/07/11 04:23:31;;;;;;;;;;;21.90;63.80;;;;;;5030656;28;83185;-42
2023/07/11 04:25:56;;;;;;;;;;;21.90;63.90;;;;;;5024477;28;82103;-41
2023/07/11 04:28:22;;;;;;;;;;;21.90;63.90;;;;;;5035908;28;82020;-41
2023/07/11 04:30:47;;;;;;;;;;;21.90;63.80;;;;;;5034643;28;82825;-41
2023/07/11 04:33:13;;;;;;;;;;;21.90;63.80;;;;;;5032340;28;83847;-41
2023/07/11 04:35:39;;;;;;;;;;;21.90;63.80;;;;;;5031431;28;83894;-42
2023/07/11 04:38:05;;;;;;;;;;;21.90;63.80;;;;;;5030663;28;82186;-42
2023/07/11 04:40:30;;;;;;;;;;;21.90;63.90;;;;;;5036535;28;82412;-43
2023/07/11 04:42:57;;;;;;;;;;;21.80;63.80;;;;;;5027239;28;82599;-41
2023/07/11 04:45:23;;;;;;;;;;;21.80;63.90;;;;;;5025144;28;82373;-40
2023/07/11 04:47:48;;;;;;;;;;;21.80;63.90;;;;;;5030857;28;82436;-41
2023/07/11 04:50:14;;;;;;;;;;;21.80;63.80;;;;;;5035070;28;83076;-42
2023/07/11 04:52:40;;;;;;;;;;;21.90;63.90;;;;;;5033800;28;81731;-42
2023/07/11 04:55:06;;;;;;;;;;;21.80;63.90;;;;;;5021438;28;83137;-41
2023/07/11 04:57:31;;;;;;;;;;;21.80;63.80;;;;;;5034818;28;85365;-40
2023/07/11 04:59:57;;;;;;;;;;;21.80;64.00;;;;;;5033102;28;83379;-41
2023/07/11 05:02:22;;;;;;;;;;;21.80;64.40;;;;;;5025457;28;82883;-41
2023/07/11 05:04:48;;;;;;;;;;;21.80;63.90;;;;;;5027533;28;82156;-43
2023/07/11 05:07:14;;;;;;;;;;;21.80;64.00;;;;;;5038457;28;82535;-41
2023/07/11 05:09:39;;;;;;;;;;;21.80;63.90;;;;;;5038048;28;83745;-42
2023/07/11 05:12:05;;;;;;;;;;;21.80;64.00;;;;;;5033931;28;82136;-41
2023/07/11 05:14:30;;;;;;;;;;;21.80;64.00;;;;;;5033399;28;83754;-41
2023/07/11 05:16:56;;;;;;;;;;;21.80;64.00;;;;;;5039817;28;82274;-44
2023/07/11 05:19:21;;;;;;;;;;;21.80;64.00;;;;;;5035588;28;84192;-41
2023/07/11 05:21:47;;;;;;;;;;;21.80;64.00;;;;;;5033014;28;84533;-41
2023/07/11 05:24:12;;;;;;;;;;;21.80;64.20;;;;;;5030776;28;83332;-41
2023/07/11 05:26:38;;;;;;;;;;;21.80;64.10;;;;;;5038209;28;83360;-43
2023/07/11 05:29:03;;;;;;;;;;;21.80;64.10;;;;;;5034897;28;83192;-40
2023/07/11 05:31:29;;;;;;;;;;;21.80;64.10;;;;;;5029195;28;82690;-44
2023/07/11 05:33:54;;;;;;;;;;;21.80;64.20;;;;;;5029883;28;82252;-41
2023/07/11 05:38:55;;;;;;;;;;;21.80;64.30;;;;;;5025944;28;82772;-45
2023/07/11 05:41:21;;;;;;;;;;;21.70;64.30;;;;;;5021587;28;82335;-41
2023/07/11 05:43:47;;;;;;;;;;;21.70;64.30;;;;;;5036037;28;82055;-43
2023/07/11 05:46:12;;;;;;;;;;;21.70;64.40;;;;;;5035975;28;81967;-41
2023/07/11 05:48:38;;;;;;;;;;;21.80;64.50;;;;;;5025536;28;83581;-43
2023/07/11 05:51:06;;;;;;;;;;;21.80;64.30;;;;;;5030154;28;83320;-45
2023/07/11 05:53:33;;;;;;;;;;;21.80;64.30;;;;;;5038412;27;82391;-42
2023/07/11 05:55:58;;;;;;;;;;;21.80;64.30;;;;;;5037093;28;82942;-42
2023/07/11 05:58:28;;;;;;;;;;;21.80;64.40;;;;;;5030196;28;82161;-41
2023/07/11 06:00:54;;;;;;;;;;;21.80;64.40;;;;;;5030932;28;82513;-43
2023/07/11 06:03:20;;;;;;;;;;;21.80;64.40;;;;;;5039002;28;82199;-43
2023/07/11 06:05:45;;;;;;;;;;;21.80;64.40;;;;;;5032639;28;82476;-46
2023/07/11 06:08:12;;;;;;;;;;;21.80;64.50;;;;;;5026196;28;82880;-46
2023/07/11 06:10:38;;;;;;;;;;;21.80;64.40;;;;;;5034577;28;82046;-48
2023/07/11 06:13:04;;;;;;;;;;;21.80;64.50;;;;;;5036058;27;83045;-46
2023/07/11 06:15:29;;;;;;;;;;;21.80;64.50;;;;;;5027692;28;82389;-42
2023/07/11 06:17:55;;;;;;;;;;;21.80;64.50;;;;;;5032724;28;82608;-42
2023/07/11 06:20:20;;;;;;;;;;;21.80;64.50;;;;;;5035436;28;82871;-41
2023/07/11 06:22:46;;;;;;;;;;;21.80;64.60;;;;;;5039051;28;82139;-45
2023/07/11 06:25:11;;;;;;;;;;;21.80;64.60;;;;;;5031993;27;82399;-44
2023/07/11 06:27:37;;;;;;;;;;;21.80;64.60;;;;;;5026582;28;82612;-46
2023/07/11 06:30:03;;;;;;;;;;;21.80;64.80;;;;;;5031533;28;81316;-44
2023/07/11 06:32:28;;;;;;;;;;;21.80;64.80;;;;;;5036300;28;82132;-46
2023/07/11 06:34:54;;;;;;;;;;;21.80;64.80;;;;;;5033257;28;83047;-45
2023/07/11 06:37:19;;;;;;;;;;;21.80;64.80;;;;;;5031024;28;83181;-46
2023/07/11 06:39:46;;;;;;;;;;;21.80;64.80;;;;;;5034315;28;84026;-43
2023/07/11 06:42:12;;;;;;;;;;;21.80;64.70;;;;;;5035777;28;83206;-41
2023/07/11 06:44:37;;;;;;;;;;;21.80;64.70;;;;;;5033135;28;82168;-41
2023/07/11 06:47:03;;;;;;;;;;;21.80;64.70;;;;;;5026297;28;83469;-41
2023/07/11 06:49:28;;;;;;;;;;;21.80;64.80;;;;;;5034772;28;82062;-43
2023/07/11 06:51:54;;;;;;;;;;;21.80;64.80;;;;;;5037276;28;82503;-41
2023/07/11 06:54:19;;;;;;;;;;;21.80;65.50;;;;;;5028923;28;83802;-41
2023/07/11 06:56:45;;;;;;;;;;;21.80;65.00;;;;;;5031336;28;82074;-40
2023/07/11 06:59:12;;;;;;;;;;;21.80;64.90;;;;;;5036058;28;82108;-41
2023/07/11 07:01:37;;;;;;;;;;;21.80;64.90;;;;;;5034738;28;83962;-41
2023/07/11 07:04:03;;;;;;;;;;;21.80;65.00;;;;;;5026733;28;82770;-41
2023/07/11 07:06:28;;;;;;;;;;;21.80;65.00;;;;;;5032817;28;83082;-42
2023/07/11 07:08:54;;;;;;;;;;;21.80;65.50;;;;;;5038381;28;82022;-43
2023/07/11 07:11:19;;;;;;;;;;;21.80;65.20;;;;;;5034216;28;82654;-41
2023/07/11 07:13:45;;;;;;;;;;;21.80;65.00;;;;;;5034983;28;83014;-41
2023/07/11 07:16:10;;;;;;;;;;;21.90;65.10;;;;;;5026303;28;82951;-40
2023/07/11 07:18:39;;;;;;;;;;;21.80;65.10;;;;;;5037902;27;81570;-41
2023/07/11 07:21:05;;;;;;;;;;;21.80;65.10;;;;;;5036786;28;84382;-40
2023/07/11 07:23:33;;;;;;;;;;;21.90;65.70;;;;;;5028681;28;83016;-43
2023/07/11 07:25:59;;;;;;;;;;;21.90;65.10;;;;;;5033465;28;83768;-41
2023/07/11 07:28:26;;;;;;;;;;;21.90;65.10;;;;;;5034913;28;82051;-41
2023/07/11 07:30:53;;;;;;;;;;;21.90;65.10;;;;;;5033894;27;84102;-40
2023/07/11 07:33:19;;;;;;;;;;;21.90;65.20;;;;;;5025046;28;83073;-41
2023/07/11 07:35:44;;;;;;;;;;;21.90;65.20;;;;;;5032255;28;84222;-41
2023/07/11 07:38:10;;;;;;;;;;;21.90;65.10;;;;;;5037567;28;82285;-41
2023/07/11 07:40:36;;;;;;;;;;;21.90;65.20;;;;;;5027539;28;84086;-41
2023/07/11 07:43:01;;;;;;;;;;;21.90;65.20;;;;;;5038372;28;81270;-41
2023/07/11 07:45:27;;;;;;;;;;;21.90;65.20;;;;;;5034386;28;81965;-41
2023/07/11 07:47:53;;;;;;;;;;;21.90;65.30;;;;;;5039924;28;82832;-41
2023/07/11 07:50:18;;;;;;;;;;;21.90;65.20;;;;;;5035340;28;83256;-41
2023/07/11 07:52:44;;;;;;;;;;;21.90;65.30;;;;;;5033617;28;83163;-43
2023/07/11 07:55:09;;;;;;;;;;;21.90;63.60;;;;;;5030489;28;82052;-42
2023/07/11 07:57:35;;;;;;;;;;;21.90;64.10;;;;;;5037256;28;82436;-47
2023/07/11 08:00:04;;;;;;;;;;;22.00;65.10;;;;;;5034174;28;82787;-44
2023/07/11 08:02:31;;;;;;;;;;;22.00;66.60;;;;;;5032997;28;82069;-44
2023/07/11 08:04:57;;;;;;;;;;;22.10;68.20;;;;;;4680574;27;10001617;-40
2023/07/11 08:07:23;;;;;;;;;;;22.10;64.20;;;;;;5036059;28;81363;-41
2023/07/11 08:09:49;;;;;;;;;;;22.20;62.60;;;;;;5035761;28;82001;-43
2023/07/11 08:12:15;;;;;;;;;;;22.20;65.10;;;;;;5037331;28;82004;-45
2023/07/11 08:14:40;;;;;;;;;;;22.30;62.60;;;;;;5033595;27;82670;-46
2023/07/11 08:17:07;;;;;;;;;;;22.30;62.50;;;;;;5036583;28;83060;-43
2023/07/11 08:19:32;;;;;;;;;;;22.40;61.70;;;;;;5034536;28;82845;-49
2023/07/11 08:21:58;;;;;;;;;;;22.50;62.20;;;;;;5035773;28;83034;-43
2023/07/11 08:24:23;;;;;;;;;;;22.50;61.60;;;;;;5035863;28;83020;-43
2023/07/11 08:26:50;;;;;;;;;;;22.50;64.70;;;;;;5034182;28;82087;-42
2023/07/11 08:29:16;;;;;;;;;;;22.70;63.40;;;;;;5037047;28;82236;-44
2023/07/11 08:31:42;;;;;;;;;;;22.70;59.70;;;;;;5036244;28;81886;-45
2023/07/11 08:34:07;;;;;;;;;;;22.70;62.40;;;;;;5037178;28;81960;-41
2023/07/11 08:36:33;;;;;;;;;;;22.80;60.90;;;;;;5034193;28;83048;-44
2023/07/11 08:38:58;;;;;;;;;;;22.80;60.50;;;;;;5035013;28;83035;-43
2023/07/11 08:41:26;;;;;;;;;;;22.80;61.30;;;;;;5034638;28;84684;-45
2023/07/11 08:43:54;;;;;;;;;;;22.80;63.20;;;;;;5034300;28;82802;-45
2023/07/11 08:46:20;;;;;;;;;;;22.80;64.80;;;;;;5036408;28;82103;-42
2023/07/11 08:48:49;;;;;;;;;;;22.80;65.30;;;;;;5029741;28;82143;-42
2023/07/11 08:51:21;;;;;;;;;;;22.80;65.10;;;;;;5035583;28;83464;-45
2023/07/11 08:53:50;;;;;;;;;;;22.80;64.70;;;;;;5038834;28;82051;-46
2023/07/11 08:56:22;;;;;;;;;;;22.90;64.40;;;;;;5033246;28;82114;-44
2023/07/11 08:58:49;;;;;;;;;;;22.90;64.10;;;;;;5034439;28;82091;-42
2023/07/11 09:01:20;;;;;;;;;;;22.80;64.00;;;;;;5032934;28;81997;-42
2023/07/11 09:03:47;;;;;;;;;;;22.90;64.00;;;;;;5035693;28;84084;-42
2023/07/11 09:06:22;;;;;;;;;;;22.90;64.00;;;;;;5033317;28;82131;-45
2023/07/11 09:08:49;;;;;;;;;;;22.80;64.00;;;;;;5035218;28;82140;-42
2023/07/11 09:11:17;;;;;;;;;;;22.80;64.00;;;;;;5033757;28;83433;-42
2023/07/11 09:13:46;;;;;;;;;;;22.80;63.80;;;;;;5033675;28;82407;-44
2023/07/11 09:16:26;;;;;;;;;;;22.80;63.80;;;;;;5031686;28;82926;-42
2023/07/11 09:18:59;;;;;;;;;;;22.80;63.90;;;;;;5034067;28;82055;-42
2023/07/11 09:21:32;;;;;;;;;;;22.80;64.00;;;;;;5030723;28;82467;-43
2023/07/11 09:24:03;;;;;;;;;;;22.70;64.00;;;;;;5034615;28;82739;-42
2023/07/11 09:26:30;;;;;;;;;;;22.70;64.00;;;;;;5036501;28;82310;-42
2023/07/11 09:29:05;;;;;;;;;;;22.70;64.00;;;;;;5032557;28;82962;-45
2023/07/11 09:31:35;;;;;;;;;;;22.70;64.10;;;;;;5032584;28;84369;-41
2023/07/11 09:34:05;;;;;;;;;;;22.70;64.10;;;;;;5033677;28;82073;-43
2023/07/11 09:36:33;;;;;;;;;;;22.80;64.10;;;;;;5031710;28;84041;-42
2023/07/11 09:39:18;;;;;;;;;;;22.80;64.10;;;;;;5035270;28;82048;-42
2023/07/11 09:41:47;;;;;;;;;;;22.70;64.00;;;;;;5018388;28;82411;-44
2023/07/11 09:44:12;;;;;;;;;;;22.80;64.00;;;;;;5034035;28;82143;-43
2023/07/11 09:46:38;;;;;;;;;;;22.80;64.10;;;;;;5033494;28;81365;-42
2023/07/11 09:49:04;;;;;;;;;;;22.80;64.10;;;;;;5035267;27;81857;-46
2023/07/11 09:51:36;;;;;;;;;;;22.80;64.10;;;;;;5038322;28;82617;-42
2023/07/11 09:54:22;;;;;;;;;;;22.90;65.60;;;;;;5032247;28;82952;-46
2023/07/11 09:56:48;;;;;;;;;;;23.00;65.60;;;;;;5035350;28;82588;-45
2023/07/11 09:59:15;;;;;;;;;;;23.10;65.90;;;;;;5039148;28;82928;-43
2023/07/11 10:01:41;;;;;;;;;;;23.20;67.80;;;;;;5035917;27;82190;-47
2023/07/11 10:04:08;;;;;;;;;;;23.30;67.80;;;;;;5037382;28;83003;-47
2023/07/11 10:06:38;;;;;;;;;;;23.30;66.50;;;;;;5036835;28;82278;-45
2023/07/11 10:09:06;;;;;;;;;;;23.40;67.20;;;;;;4997080;27;85340;-45
2023/07/11 10:11:32;;;;;;;;;;;23.50;66.00;;;;;;4998589;27;85505;-49
2023/07/11 10:13:57;;;;;;;;;;;23.50;64.90;;;;;;4997132;27;84624;-48
2023/07/11 10:16:23;;;;;;;;;;;23.50;64.30;;;;;;5032552;28;83987;-43
2023/07/11 10:18:51;;;;;;;;;;;23.50;66.00;;;;;;5030283;27;89333;-38
2023/07/11 10:21:19;;;;;;;;;;;23.50;65.60;;;;;;4998353;27;85959;-43
2023/07/11 10:23:46;;;;;;;;;;;23.50;65.20;;;;;;5001813;28;83888;-48
2023/07/11 10:26:14;;;;;;;;;;;23.50;64.70;;;;;;5003285;27;86015;-43
2023/07/11 10:28:43;;;;;;;;;;;23.50;65.70;;;;;;4998723;28;82187;-42
2023/07/11 10:31:09;;;;;;;;;;;23.50;64.70;;;;;;5003236;28;84843;-44
2023/07/11 10:33:39;;;;;;;;;;;23.50;65.00;;;;;;5008217;27;83044;-46
2023/07/11 10:36:31;;;;;;;;;;;23.40;65.20;;;;;;5018798;28;82538;-41
2023/07/11 10:38:58;;;;;;;;;;;23.50;65.40;;;;;;5002256;27;82993;-40
2023/07/11 10:41:45;;;;;;;;;;;23.60;67.10;;;;;;5014885;28;82173;-46
2023/07/11 10:44:14;;;;;;;;;;;23.70;67.20;;;;;;5016427;28;82979;-38
2023/07/11 10:46:45;;;;;;;;;;;23.80;68.10;;;;;;5016047;28;82075;-44
2023/07/11 10:49:19;;;;;;;;;;;23.80;68.60;;;;;;4991278;27;86857;-45
2023/07/11 10:51:51;;;;;;;;;;;23.80;67.90;;;;;;5002864;28;83228;-41
2023/07/11 10:54:21;;;;;;;;;;;23.80;67.40;;;;;;5016592;28;82059;-40
2023/07/11 10:56:49;;;;;;;;;;;23.90;68.00;;;;;;5018128;28;82563;-46
2023/07/11 10:59:16;;;;;;;;;;;24.00;68.50;;;;;;5004268;27;82714;-44
2023/07/11 11:01:41;;;;;;;;;;;24.00;68.30;;;;;;5011345;28;81831;-52
2023/07/11 11:04:07;;;;;;;;;;;24.10;69.00;;;;;;5014084;28;82566;-52
2023/07/11 11:06:41;;;;;;;;;;;24.10;68.50;;;;;;5020911;28;84601;-47
2023/07/11 11:09:23;;;;;;;;;;;24.10;66.80;;;;;;5015401;28;82823;-43
2023/07/11 11:11:48;;;;;;;;;;;24.10;68.10;;;;;;5013812;28;83121;-42
2023/07/11 11:14:23;;;;;;;;;;;24.10;68.90;;;;;;5015197;28;82489;-46
2023/07/11 11:16:54;;;;;;;;;;;24.10;64.90;;;;;;5014845;28;82483;-49
2023/07/11 11:19:29;;;;;;;;;;;24.20;64.20;;;;;;5013237;28;82349;-45
2023/07/11 11:22:05;;;;;;;;;;;24.30;65.80;;;;;;5016371;28;82209;-46
2023/07/11 11:24:39;;;;;;;;;;;24.40;66.90;;;;;;5007021;27;83436;-48
2023/07/11 11:27:21;;;;;;;;;;;24.50;67.30;;;;;;5003063;27;83214;-44
2023/07/11 11:30:06;;;;;;;;;;;24.50;66.00;;;;;;5016389;28;81987;-50
2023/07/11 11:32:32;;;;;;;;;;;24.60;67.60;;;;;;5008160;28;82136;-41
2023/07/11 11:35:15;;;;;;;;;;;24.60;67.70;;;;;;5016824;28;83179;-53
2023/07/11 11:37:52;;;;;;;;;;;24.60;67.20;;;;;;5017628;28;82614;-51
2023/07/11 11:40:29;;;;;;;;;;;24.70;67.10;;;;;;5012270;28;82951;-46
2023/07/11 11:43:11;;;;;;;;;;;24.80;66.60;;;;;;5013110;28;82024;-47
2023/07/11 11:45:37;;;;;;;;;;;24.90;67.00;;;;;;5011175;28;82734;-46
2023/07/11 11:48:04;;;;;;;;;;;24.90;67.90;;;;;;5013389;28;82091;-44
2023/07/11 11:50:31;;;;;;;;;;;24.90;65.60;;;;;;5017660;28;82408;-46
2023/07/11 11:53:09;;;;;;;;;;;24.90;65.10;;;;;;5013161;28;82279;-43
2023/07/11 11:55:36;;;;;;;;;;;24.80;63.20;;;;;;5009917;28;82198;-44
2023/07/11 11:58:02;;;;;;;;;;;24.80;64.70;;;;;;5011537;28;82530;-46
2023/07/11 12:00:38;;;;;;;;;;;24.80;65.60;;;;;;5014950;28;83170;-44
2023/07/11 12:03:05;;;;;;;;;;;25.00;65.50;;;;;;5013984;28;83871;-47
2023/07/11 12:05:32;;;;;;;;;;;24.90;63.50;;;;;;5010028;28;82457;-47
2023/07/11 12:08:27;;;;;;;;;;;24.80;62.50;;;;;;5016600;28;82868;-46
2023/07/11 12:11:15;;;;;;;;;;;24.90;62.20;;;;;;5030897;27;82027;-54
2023/07/11 12:13:43;;;;;;;;;;;24.90;62.50;;;;;;5007352;28;82515;-47
2023/07/11 12:16:17;;;;;;;;;;;24.80;61.50;;;;;;5016036;28;82459;-47
2023/07/11 12:18:45;;;;;;;;;;;24.70;61.90;;;;;;5017162;28;82293;-42
2023/07/11 12:21:14;;;;;;;;;;;24.80;61.20;;;;;;5013618;28;82968;-48
2023/07/11 12:23:42;;;;;;;;;;;24.70;61.70;;;;;;5009184;28;82030;-58
2023/07/11 12:26:12;;;;;;;;;;;24.80;60.70;;;;;;5012413;28;83065;-45
2023/07/11 12:28:37;;;;;;;;;;;24.80;61.10;;;;;;5013818;28;83258;-45
2023/07/11 12:31:04;;;;;;;;;;;25.00;61.30;;;;;;5015345;28;82885;-51
2023/07/11 12:33:32;;;;;;;;;;;25.00;62.20;;;;;;5013613;28;82455;-42
2023/07/11 12:36:06;;;;;;;;;;;25.00;62.70;;;;;;5018641;28;84567;-42
2023/07/11 12:38:41;;;;;;;;;;;25.10;62.50;;;;;;5010422;28;82961;-41
2023/07/11 12:41:15;;;;;;;;;;;25.20;62.60;;;;;;5014283;28;82108;-44
2023/07/11 12:43:45;;;;;;;;;;;25.20;62.60;;;;;;5013710;28;81822;-42
2023/07/11 12:46:14;;;;;;;;;;;25.20;62.70;;;;;;5010379;28;82160;-42
2023/07/11 12:48:43;;;;;;;;;;;25.10;62.60;;;;;;5015169;28;82489;-43
2023/07/11 12:51:23;;;;;;;;;;;25.10;62.80;;;;;;5014616;28;82989;-43
2023/07/11 12:53:50;;;;;;;;;;;25.10;62.90;;;;;;5010021;28;83717;-41
2023/07/11 12:56:16;;;;;;;;;;;25.10;63.10;;;;;;5014230;28;86328;-53
2023/07/11 12:58:41;;;;;;;;;;;25.20;62.60;;;;;;5015937;28;82449;-53
2023/07/11 13:01:12;;;;;;;;;;;25.10;63.80;;;;;;5014005;28;83529;-48
2023/07/11 13:03:38;;;;;;;;;;;25.20;62.80;;;;;;5013077;28;81934;-52
2023/07/11 13:06:05;;;;;;;;;;;25.30;61.50;;;;;;5015583;28;82475;-47
2023/07/11 13:08:35;;;;;;;;;;;25.30;60.60;;;;;;5013253;28;83434;-51
2023/07/11 13:11:02;;;;;;;;;;;25.40;58.90;;;;;;5009730;28;81920;-54
2023/07/11 13:13:29;;;;;;;;;;;25.30;57.10;;;;;;5015802;28;82400;-44
2023/07/11 13:15:57;;;;;;;;;;;25.40;58.40;;;;;;5012617;28;84204;-41
2023/07/11 13:18:34;;;;;;;;;;;25.60;58.00;;;;;;5014347;28;82035;-42
2023/07/11 13:21:01;;;;;;;;;;;25.60;58.00;;;;;;5011465;28;82764;-46
2023/07/11 13:23:35;;;;;;;;;;;25.70;59.90;;;;;;5016194;28;82062;-46
2023/07/11 13:26:01;;;;;;;;;;;25.80;61.10;;;;;;5018031;28;82007;-50
2023/07/11 13:28:46;;;;;;;;;;;25.80;60.20;;;;;;5017524;28;82896;-50
2023/07/11 13:31:22;;;;;;;;;;;25.80;59.60;;;;;;5014278;28;83049;-47
2023/07/11 13:33:57;;;;;;;;;;;25.80;58.40;;;;;;5019504;28;83130;-51
2023/07/11 13:36:22;;;;;;;;;;;25.80;56.70;;;;;;5013685;28;82259;-51
2023/07/11 13:38:49;;;;;;;;;;;25.90;55.80;;;;;;5018925;28;82058;-47
2023/07/11 13:41:17;;;;;;;;;;;25.90;57.30;;;;;;5019108;28;82965;-49
2023/07/11 13:43:46;;;;;;;;;;;26.00;56.30;;;;;;5017559;28;82275;-42
2023/07/11 13:46:13;;;;;;;;;;;26.00;55.40;;;;;;5016470;28;84257;-48
2023/07/11 13:48:41;;;;;;;;;;;26.00;57.70;;;;;;5016851;28;84182;-44
2023/07/11 13:51:20;;;;;;;;;;;25.90;57.20;;;;;;5012241;28;82002;-43
2023/07/11 13:53:48;;;;;;;;;;;25.80;58.20;;;;;;5017321;28;83934;-43
2023/07/11 13:56:13;;;;;;;;;;;25.90;58.40;;;;;;5018639;28;83797;-42
2023/07/11 13:58:39;;;;;;;;;;;25.90;58.20;;;;;;5016963;28;81210;-42
2023/07/11 14:01:09;;;;;;;;;;;26.00;58.40;;;;;;5018813;28;81887;-42
2023/07/11 14:03:35;;;;;;;;;;;26.00;58.70;;;;;;5014169;28;83777;-46
2023/07/11 14:06:01;;;;;;;;;;;26.10;58.80;;;;;;5018209;28;83065;-41
2023/07/11 14:08:26;;;;;;;;;;;26.10;58.90;;;;;;5016693;28;83607;-42
2023/07/11 14:10:52;;;;;;;;;;;26.10;59.20;;;;;;5017883;28;82754;-43
2023/07/11 14:13:20;;;;;;;;;;;26.10;59.40;;;;;;5017167;28;83928;-43
2023/07/11 14:15:45;;;;;;;;;;;26.10;59.50;;;;;;5016131;28;82252;-45
2023/07/11 14:18:12;;;;;;;;;;;26.10;59.70;;;;;;5018363;28;82775;-42
2023/07/11 14:20:39;;;;;;;;;;;26.10;59.80;;;;;;5015157;28;82420;-43